createdAt,value
2023-04-01T00:04:28.554Z,93238.06
2023-04-01T00:09:32.192Z,93227.13
2023-04-01T00:14:36.381Z,93209.53
2023-04-01T00:19:40.704Z,93213.97
2023-04-01T00:24:43.785Z,93204.06
2023-04-01T00:29:49.131Z,93201.50
2023-04-01T00:34:53.362Z,93194.69
2023-04-01T00:39:57.005Z,93198.69
2023-04-01T00:45:21.409Z,93190.53
2023-04-01T00:50:26.664Z,93206.88
2023-04-01T00:55:33.734Z,93203.34
2023-04-01T01:00:38.640Z,93210.41
2023-04-01T01:06:11.689Z,93187.97
2023-04-01T01:11:21.309Z,93199.88
2023-04-01T01:16:31.692Z,93198.97
2023-04-01T01:22:08.365Z,93184.31
2023-04-01T01:27:12.966Z,93173.91
2023-04-01T01:32:54.047Z,93160.72
2023-04-01T01:38:02.710Z,93159.84
2023-04-01T01:43:10.150Z,93171.41
2023-04-01T01:48:13.870Z,93174.66
2023-04-01T01:53:17.535Z,93179.56
2023-04-01T01:58:30.656Z,93167.47
2023-04-01T02:03:40.472Z,93149.72
2023-04-01T02:08:49.639Z,93145.63
2023-04-01T02:14:15.239Z,93152.69
2023-04-01T02:19:23.940Z,93153.69
2023-04-01T02:24:32.959Z,93145.09
2023-04-01T02:29:36.439Z,93128.44
2023-04-01T02:34:44.777Z,93161.59
2023-04-01T02:39:48.375Z,93164.22
2023-04-01T02:44:52.390Z,93140.38
2023-04-01T02:49:59.507Z,93148.59
2023-04-01T02:55:03.606Z,93148.13
2023-04-01T03:00:12.415Z,93155.69
2023-04-01T03:05:15.880Z,93144.34
2023-04-01T03:10:20.164Z,93151.59
2023-04-01T03:15:24.030Z,93156.06
2023-04-01T03:20:27.891Z,93156.81
2023-04-01T03:25:32.292Z,93149.63
2023-04-01T03:30:36.698Z,93155.88
2023-04-01T03:35:40.054Z,93160.59
2023-04-01T03:40:47.281Z,93163.00
2023-04-01T03:45:52.964Z,93175.88
2023-04-01T03:50:56.524Z,93179.41
2023-04-01T03:56:04.387Z,93164.19
2023-04-01T04:01:22.947Z,93159.50
2023-04-01T04:06:30.513Z,93161.44
2023-04-01T04:11:37.183Z,93166.81
2023-04-01T04:16:41.322Z,93162.41
2023-04-01T04:21:45.741Z,93166.75
2023-04-01T04:26:51.200Z,93170.31
2023-04-01T04:31:55.410Z,93183.25
2023-04-01T04:37:01.882Z,93208.28
2023-04-01T04:42:09.474Z,93180.53
2023-04-01T04:47:12.926Z,93191.50
2023-04-01T04:52:17.126Z,93196.56
2023-04-01T04:57:20.986Z,93200.50
2023-04-01T05:02:31.598Z,93207.50
2023-04-01T05:07:36.479Z,93220.78
2023-04-01T05:12:40.187Z,93227.81
2023-04-01T05:17:46.751Z,93246.16
2023-04-01T05:22:51.409Z,93229.78
2023-04-01T05:27:56.499Z,93233.28
2023-04-01T05:33:00.976Z,93243.44
2023-04-01T05:38:06.490Z,93257.09
2023-04-01T05:43:11.275Z,93250.84
2023-04-01T05:48:15.309Z,93244.59
2023-04-01T05:53:19.155Z,93259.38
2023-04-01T05:58:23.028Z,93242.50
2023-04-01T06:03:27.195Z,93242.78
2023-04-01T06:08:34.411Z,93233.88
2023-04-01T06:13:45.094Z,93243.00
2023-04-01T06:19:30.656Z,93254.69
2023-04-01T06:25:12.408Z,93257.81
2023-04-01T06:30:37.010Z,93249.81
2023-04-01T06:36:24.510Z,93253.22
2023-04-01T06:42:06.511Z,93249.47
2023-04-01T06:47:39.839Z,93243.88
2023-04-01T06:53:27.960Z,93250.34
2023-04-01T06:59:00.527Z,93237.16
2023-04-01T07:04:13.383Z,93250.19
2023-04-01T07:09:23.012Z,93230.31
2023-04-01T07:14:46.351Z,93236.56
2023-04-01T07:20:00.244Z,93234.44
2023-04-01T07:25:13.268Z,93247.94
2023-04-01T07:30:23.032Z,93250.94
2023-04-01T07:35:52.088Z,93242.75
2023-04-01T07:41:01.243Z,93237.09
2023-04-01T07:46:11.813Z,93234.25
2023-04-01T07:51:24.542Z,93257.88
2023-04-01T07:57:02.603Z,93256.22
2023-04-01T08:02:23.330Z,93261.13
2023-04-01T08:08:16.669Z,93244.88
2023-04-01T08:14:03.390Z,93239.53
2023-04-01T08:19:50.641Z,93238.28
2023-04-01T08:25:01.217Z,93241.59
2023-04-01T08:30:19.349Z,93265.00
2023-04-01T08:35:59.032Z,93265.88
2023-04-01T08:41:10.516Z,93257.31
2023-04-01T08:46:54.308Z,93241.75
2023-04-01T08:52:23.813Z,93254.19
2023-04-01T08:57:50.458Z,93232.75
2023-04-01T09:03:25.431Z,93269.00
2023-04-01T09:08:41.099Z,93256.31
2023-04-01T09:13:55.271Z,93241.13
2023-04-01T09:19:35.842Z,93248.34
2023-04-01T09:24:54.201Z,93233.09
2023-04-01T09:30:24.622Z,93215.69
2023-04-01T09:35:38.309Z,93217.84
2023-04-01T09:41:27.263Z,93217.38
2023-04-01T09:46:50.569Z,93195.66
2023-04-01T09:52:22.027Z,93209.16
2023-04-01T09:58:14.625Z,93202.88
2023-04-01T10:04:00.003Z,93197.63
2023-04-01T10:09:26.186Z,93200.81
2023-04-01T10:15:11.096Z,93200.44
2023-04-01T10:20:14.664Z,93188.94
2023-04-01T10:25:46.802Z,93175.91
2023-04-01T10:31:19.752Z,93171.19
2023-04-01T10:36:38.062Z,93179.69
2023-04-01T10:42:06.335Z,93175.47
2023-04-01T10:47:57.417Z,93178.84
2023-04-01T10:53:33.569Z,93169.63
2023-04-01T10:59:34.364Z,93170.56
2023-04-01T11:05:34.543Z,93171.84
2023-04-01T11:11:14.883Z,93176.41
2023-04-01T11:16:49.306Z,93172.69
2023-04-01T11:22:30.702Z,93179.88
2023-04-01T11:28:36.920Z,93165.69
2023-04-01T11:33:57.074Z,93167.03
2023-04-01T11:39:36.097Z,93163.72
2023-04-01T11:45:15.425Z,93173.53
2023-04-01T11:50:43.331Z,93176.72
2023-04-01T11:55:50.696Z,93180.91
2023-04-01T12:01:36.335Z,93186.41
2023-04-01T12:06:39.717Z,93172.19
2023-04-01T12:11:43.712Z,93164.25
2023-04-01T12:17:00.993Z,93167.06
2023-04-01T12:22:17.818Z,93162.25
2023-04-01T12:27:43.065Z,93174.97
2023-04-01T12:32:58.894Z,93152.78
2023-04-01T12:38:39.958Z,93147.31
2023-04-01T12:44:03.884Z,93146.56
2023-04-01T12:49:25.888Z,93138.25
2023-04-01T13:08:43.737Z,93119.97
2023-04-01T13:14:07.352Z,93112.03
2023-04-01T13:19:29.481Z,93096.69
2023-04-01T13:24:51.947Z,93095.69
2023-04-01T13:29:56.219Z,93093.06
2023-04-01T13:35:21.551Z,93077.63
2023-04-01T13:40:46.796Z,93066.16
2023-04-01T13:46:08.675Z,93072.44
2023-04-01T13:51:42.361Z,93080.00
2023-04-01T13:57:10.840Z,93075.63
2023-04-01T14:02:39.362Z,93073.09
2023-04-01T14:08:01.070Z,93067.06
2023-04-01T14:13:25.853Z,93074.13
2023-04-01T14:18:43.662Z,93055.09
2023-04-01T14:24:10.235Z,93049.72
2023-04-01T14:29:34.961Z,93051.19
2023-04-01T14:35:17.290Z,93036.59
2023-04-01T14:40:40.315Z,93047.25
2023-04-01T14:46:05.223Z,93053.94
2023-04-01T14:51:32.583Z,93042.72
2023-04-01T14:56:45.826Z,93022.94
2023-04-01T15:02:13.181Z,93029.31
2023-04-01T15:08:03.626Z,93028.13
2023-04-01T15:13:16.461Z,93034.44
2023-04-01T15:18:40.387Z,93030.97
2023-04-01T15:23:59.697Z,93026.53
2023-04-01T15:29:28.167Z,93021.78
2023-04-01T15:35:01.635Z,93031.97
2023-04-01T15:40:40.513Z,93019.69
2023-04-01T15:45:50.750Z,93030.50
2023-04-01T15:50:57.839Z,93033.22
2023-04-01T15:56:43.615Z,93036.31
2023-04-01T16:02:13.105Z,93040.19
2023-04-01T16:07:50.559Z,93022.22
2023-04-01T16:13:21.361Z,93024.31
2023-04-01T16:18:33.921Z,93027.91
2023-04-01T16:23:50.132Z,93020.13
2023-04-01T16:29:21.627Z,93021.91
2023-04-01T16:34:45.553Z,93031.88
2023-04-01T16:40:12.258Z,93014.72
2023-04-01T16:45:34.813Z,93034.41
2023-04-01T16:50:47.956Z,93038.53
2023-04-01T16:56:04.147Z,93031.94
2023-04-01T17:02:01.392Z,93021.00
2023-04-01T17:07:39.387Z,93042.94
2023-04-01T17:13:01.563Z,93047.78
2023-04-01T17:18:34.387Z,93039.56
2023-04-01T17:23:40.085Z,93040.47
2023-04-01T17:29:11.306Z,93043.81
2023-04-01T17:34:43.836Z,93046.44
2023-04-01T17:40:23.148Z,93037.34
2023-04-01T17:45:49.857Z,93018.38
2023-04-01T17:51:25.337Z,93018.38
2023-04-01T17:56:51.021Z,93023.22
2023-04-01T18:02:15.149Z,93035.94
2023-04-01T18:07:36.821Z,93037.00
2023-04-01T18:12:46.468Z,93036.78
2023-04-01T18:18:20.852Z,93033.03
2023-04-01T18:23:52.032Z,93031.75
2023-04-01T18:29:20.474Z,93042.47
2023-04-01T18:34:58.454Z,93036.31
2023-04-01T18:40:20.009Z,93037.31
2023-04-01T18:45:31.211Z,93048.94
2023-04-01T18:50:48.960Z,93042.31
2023-04-01T18:56:00.838Z,93044.53
2023-04-01T19:01:06.991Z,93048.81
2023-04-01T19:06:22.406Z,93032.41
2023-04-01T19:11:53.092Z,93028.81
2023-04-01T19:17:17.509Z,93027.53
2023-04-01T19:22:43.975Z,93030.66
2023-04-01T19:27:53.505Z,93026.69
2023-04-01T19:33:21.100Z,93023.47
2023-04-01T19:38:41.383Z,93027.19
2023-04-01T19:44:06.436Z,93025.03
2023-04-01T19:49:38.578Z,93027.03
2023-04-01T19:54:54.972Z,93025.50
2023-04-01T20:00:17.592Z,93032.59
2023-04-01T20:05:51.628Z,93034.59
2023-04-01T20:11:09.385Z,93030.13
2023-04-01T20:16:14.501Z,93018.09
2023-04-01T20:21:18.163Z,93021.75
2023-04-01T20:26:27.131Z,93028.19
2023-04-01T20:31:56.149Z,93015.06
2023-04-01T20:37:14.691Z,93028.66
2023-04-01T20:42:57.198Z,93027.22
2023-04-01T20:48:23.825Z,93037.09
2023-04-01T20:53:51.319Z,93035.09
2023-04-01T20:59:11.925Z,93037.50
2023-04-01T21:04:37.482Z,93040.19
2023-04-01T21:10:11.066Z,93037.06
2023-04-01T21:15:31.938Z,93028.09
2023-04-01T21:20:41.148Z,93010.50
2023-04-01T21:26:03.089Z,93013.34
2023-04-01T21:31:35.166Z,93030.97
2023-04-01T21:37:24.912Z,93035.34
2023-04-01T21:42:39.910Z,93035.78
2023-04-01T21:48:20.857Z,93040.03
2023-04-01T21:54:01.370Z,93044.94
2023-04-01T21:59:48.039Z,93037.00
2023-04-01T22:05:23.708Z,93043.56
2023-04-01T22:10:55.342Z,93035.88
2023-04-01T22:16:29.088Z,93036.28
2023-04-01T22:21:46.430Z,93035.88
2023-04-01T22:26:55.718Z,93038.63
2023-04-01T22:32:08.721Z,93040.31
2023-04-01T22:37:31.169Z,93034.13
2023-04-01T22:42:40.116Z,93030.28
2023-04-01T22:48:26.889Z,93023.59
2023-04-01T22:53:48.861Z,93024.16
2023-04-01T22:59:12.557Z,93035.97
2023-04-01T23:04:19.534Z,93035.63
2023-04-01T23:09:25.170Z,93042.25
2023-04-01T23:14:38.288Z,93041.28
2023-04-01T23:20:05.500Z,93051.19
2023-04-01T23:25:30.282Z,93051.63
2023-04-01T23:30:53.597Z,93053.63
2023-04-01T23:36:13.106Z,93032.44
2023-04-01T23:41:27.468Z,93043.03
2023-04-01T23:46:35.392Z,93032.13
2023-04-01T23:51:47.852Z,93033.41
2023-04-01T23:56:56.614Z,93014.34
